GACFB EGEI-EGPO
Flight info
| Callsign | GACFB |
|---|---|
| Flight time | N/A |
| Altitude | 4000 |
| Route | 572057N0054001W DCT 572050N0054545W 572126N0054955W 573409N0055707W 575024N0060804W DCT 580554N0061832W |
| Aircraft | C172/L-SDFG/C |
Departure
| Time | 2026-04-28 18:19 |
|---|---|
| Airport | Broadford Airstrip (EGEI) |
Arrival
| Time | N/A |
|---|---|
| Airport | Stornoway Airport (EGPO) |
| Time | Latitude | Longitude | Altitude | Speed | Heading |
|---|---|---|---|---|---|
| 2026-04-28 18:19 | 57.32578 | -5.70558 | 2615 ft | 67 kts | 41° |
| 2026-04-28 18:19 | 57.32925 | -5.69973 | 2715 ft | 67 kts | 41° |
| 2026-04-28 18:19 | 57.33271 | -5.69391 | 2814 ft | 67 kts | 41° |
| 2026-04-28 18:19 | 57.33619 | -5.68808 | 2914 ft | 67 kts | 41° |
| 2026-04-28 18:20 | 57.33966 | -5.68225 | 3014 ft | 67 kts | 41° |
| 2026-04-28 18:20 | 57.34348 | -5.67773 | 3112 ft | 66 kts | 12° |
| 2026-04-28 18:20 | 57.34790 | -5.67925 | 3212 ft | 66 kts | 326° |
| 2026-04-28 18:20 | 57.35038 | -5.68621 | 3313 ft | 66 kts | 280° |
| 2026-04-28 18:21 | 57.35019 | -5.69466 | 3415 ft | 66 kts | 261° |
| 2026-04-28 18:21 | 57.34958 | -5.70289 | 3543 ft | 61 kts | 261° |
| 2026-04-28 18:21 | 57.34907 | -5.71089 | 3598 ft | 67 kts | 263° |
| 2026-04-28 18:21 | 57.34864 | -5.72004 | 3604 ft | 74 kts | 265° |
| 2026-04-28 18:22 | 57.34829 | -5.72978 | 3602 ft | 76 kts | 266° |
| 2026-04-28 18:22 | 57.34800 | -5.73956 | 3627 ft | 73 kts | 266° |
| 2026-04-28 18:22 | 57.34777 | -5.74801 | 3783 ft | 60 kts | 266° |
| 2026-04-28 18:22 | 57.34757 | -5.75503 | 3936 ft | 50 kts | 266° |
| 2026-04-28 18:23 | 57.34785 | -5.76186 | 4002 ft | 58 kts | 278° |
| 2026-04-28 18:23 | 57.34877 | -5.77009 | 4009 ft | 71 kts | 282° |
| 2026-04-28 18:23 | 57.34996 | -5.77932 | 4004 ft | 76 kts | 283° |
| 2026-04-28 18:23 | 57.35128 | -5.78892 | 4001 ft | 77 kts | 284° |
| 2026-04-28 18:24 | 57.35263 | -5.79856 | 4000 ft | 77 kts | 284° |
| 2026-04-28 18:24 | 57.35355 | -5.80504 | 4000 ft | 77 kts | 284° |
| 2026-04-28 18:24 | 57.35538 | -5.81782 | 3999 ft | 77 kts | 285° |
| 2026-04-28 18:24 | 57.35838 | -5.82582 | 3997 ft | 77 kts | 319° |
| 2026-04-28 18:25 | 57.36288 | -5.83118 | 3999 ft | 77 kts | 331° |
| 2026-04-28 18:25 | 57.36773 | -5.83540 | 3999 ft | 77 kts | 336° |
| 2026-04-28 18:25 | 57.37275 | -5.83909 | 3999 ft | 77 kts | 339° |
| 2026-04-28 18:26 | 57.38288 | -5.84561 | 3999 ft | 77 kts | 341° |
| 2026-04-28 18:26 | 57.38800 | -5.84868 | 3999 ft | 77 kts | 341° |
| 2026-04-28 18:26 | 57.39317 | -5.85172 | 3999 ft | 77 kts | 342° |
| 2026-04-28 18:26 | 57.39825 | -5.85465 | 3999 ft | 77 kts | 342° |
| 2026-04-28 18:27 | 57.40339 | -5.85760 | 3999 ft | 77 kts | 342° |
| 2026-04-28 18:27 | 57.40856 | -5.86056 | 3999 ft | 77 kts | 342° |
| 2026-04-28 18:27 | 57.41365 | -5.86345 | 3999 ft | 77 kts | 342° |
| 2026-04-28 18:27 | 57.41886 | -5.86641 | 3999 ft | 77 kts | 342° |
| 2026-04-28 18:28 | 57.42393 | -5.86930 | 3999 ft | 77 kts | 342° |
| 2026-04-28 18:28 | 57.42907 | -5.87221 | 3999 ft | 77 kts | 342° |
| 2026-04-28 18:28 | 57.43423 | -5.87514 | 3999 ft | 77 kts | 342° |
| 2026-04-28 18:28 | 57.43941 | -5.87809 | 3999 ft | 77 kts | 342° |
| 2026-04-28 18:29 | 57.44453 | -5.88099 | 3999 ft | 77 kts | 342° |
| 2026-04-28 18:29 | 57.44920 | -5.88365 | 3942 ft | 101 kts | 342° |
| 2026-04-28 18:29 | 57.45404 | -5.88639 | 3993 ft | 109 kts | 343° |
| 2026-04-28 18:29 | 57.46164 | -5.89068 | 4003 ft | 119 kts | 343° |
| 2026-04-28 18:30 | 57.46979 | -5.89527 | 4001 ft | 124 kts | 343° |
| 2026-04-28 18:30 | 57.47535 | -5.89840 | 4000 ft | 125 kts | 343° |
| 2026-04-28 18:30 | 57.48642 | -5.90467 | 4000 ft | 125 kts | 343° |
| 2026-04-28 18:30 | 57.49480 | -5.90943 | 3999 ft | 125 kts | 343° |
| 2026-04-28 18:31 | 57.50316 | -5.91418 | 3999 ft | 125 kts | 343° |
| 2026-04-28 18:31 | 57.51151 | -5.91893 | 3999 ft | 125 kts | 343° |
| 2026-04-28 18:31 | 57.51984 | -5.92367 | 3999 ft | 125 kts | 343° |
| 2026-04-28 18:31 | 57.52822 | -5.92844 | 3999 ft | 125 kts | 343° |
| 2026-04-28 18:32 | 57.53657 | -5.93320 | 3999 ft | 125 kts | 343° |
| 2026-04-28 18:32 | 57.54484 | -5.93792 | 3999 ft | 125 kts | 343° |
| 2026-04-28 18:32 | 57.55320 | -5.94269 | 3999 ft | 125 kts | 343° |
| 2026-04-28 18:32 | 57.56153 | -5.94744 | 3999 ft | 125 kts | 343° |
| 2026-04-28 18:33 | 57.56983 | -5.95244 | 4000 ft | 125 kts | 341° |
| 2026-04-28 18:33 | 57.57808 | -5.95783 | 4000 ft | 125 kts | 340° |
| 2026-04-28 18:33 | 57.58628 | -5.96328 | 3999 ft | 125 kts | 340° |
| 2026-04-28 18:33 | 57.59444 | -5.96875 | 3999 ft | 125 kts | 340° |
| 2026-04-28 18:34 | 57.60272 | -5.97431 | 3999 ft | 125 kts | 340° |
| 2026-04-28 18:34 | 57.61095 | -5.97984 | 3999 ft | 125 kts | 340° |
| 2026-04-28 18:34 | 57.61909 | -5.98530 | 3999 ft | 125 kts | 340° |
| 2026-04-28 18:34 | 57.62731 | -5.99083 | 3999 ft | 125 kts | 340° |
| 2026-04-28 18:35 | 57.63560 | -5.99640 | 3999 ft | 125 kts | 340° |
| 2026-04-28 18:35 | 57.64375 | -6.00188 | 3999 ft | 125 kts | 340° |
| 2026-04-28 18:35 | 57.65195 | -6.00740 | 3999 ft | 125 kts | 340° |
| 2026-04-28 18:35 | 57.66021 | -6.01296 | 3999 ft | 125 kts | 340° |
| 2026-04-28 18:36 | 57.66843 | -6.01850 | 3999 ft | 125 kts | 340° |
| 2026-04-28 18:36 | 57.67666 | -6.02405 | 3999 ft | 125 kts | 340° |
| 2026-04-28 18:36 | 57.68483 | -6.02956 | 3999 ft | 125 kts | 340° |
| 2026-04-28 18:36 | 57.69312 | -6.03515 | 3999 ft | 125 kts | 340° |
| 2026-04-28 18:37 | 57.70124 | -6.04063 | 3999 ft | 125 kts | 340° |
| 2026-04-28 18:37 | 57.70950 | -6.04621 | 3999 ft | 125 kts | 340° |
| 2026-04-28 18:37 | 57.71770 | -6.05175 | 3999 ft | 125 kts | 340° |
| 2026-04-28 18:37 | 57.72587 | -6.05729 | 3999 ft | 125 kts | 340° |
| 2026-04-28 18:38 | 57.73407 | -6.06285 | 3999 ft | 125 kts | 340° |
| 2026-04-28 18:38 | 57.74229 | -6.06843 | 3999 ft | 125 kts | 340° |
| 2026-04-28 18:38 | 57.75042 | -6.07395 | 3999 ft | 125 kts | 340° |
| 2026-04-28 18:38 | 57.75869 | -6.07954 | 3999 ft | 125 kts | 340° |
| 2026-04-28 18:39 | 57.76685 | -6.08506 | 3999 ft | 125 kts | 340° |
| 2026-04-28 18:39 | 57.77506 | -6.09060 | 3999 ft | 125 kts | 340° |
| 2026-04-28 18:39 | 57.78328 | -6.09616 | 3999 ft | 125 kts | 340° |
| 2026-04-28 18:39 | 57.79145 | -6.10171 | 3999 ft | 125 kts | 340° |
| 2026-04-28 18:40 | 57.79975 | -6.10734 | 3999 ft | 125 kts | 340° |
| 2026-04-28 18:40 | 57.80786 | -6.11285 | 3999 ft | 125 kts | 340° |
| 2026-04-28 18:40 | 57.81611 | -6.11845 | 3999 ft | 125 kts | 340° |
| 2026-04-28 18:40 | 57.82435 | -6.12405 | 3999 ft | 125 kts | 340° |
| 2026-04-28 18:41 | 57.83248 | -6.12959 | 3999 ft | 125 kts | 340° |
| 2026-04-28 18:41 | 57.84074 | -6.13518 | 3999 ft | 125 kts | 340° |
| 2026-04-28 18:41 | 57.84895 | -6.14071 | 3999 ft | 125 kts | 340° |
| 2026-04-28 18:41 | 57.85444 | -6.14441 | 3999 ft | 125 kts | 340° |
| 2026-04-28 18:42 | 57.86534 | -6.15173 | 3999 ft | 125 kts | 340° |
| 2026-04-28 18:42 | 57.87362 | -6.15730 | 3999 ft | 125 kts | 340° |
| 2026-04-28 18:42 | 57.88184 | -6.16284 | 3999 ft | 125 kts | 340° |
| 2026-04-28 18:42 | 57.89004 | -6.16836 | 3999 ft | 125 kts | 340° |
| 2026-04-28 18:43 | 57.89826 | -6.17390 | 3991 ft | 125 kts | 340° |
| 2026-04-28 18:43 | 57.90642 | -6.17937 | 3817 ft | 127 kts | 340° |
| 2026-04-28 18:43 | 57.91469 | -6.18492 | 3641 ft | 126 kts | 340° |
| 2026-04-28 18:43 | 57.92291 | -6.19046 | 3465 ft | 125 kts | 340° |
| 2026-04-28 18:44 | 57.93107 | -6.19596 | 3290 ft | 124 kts | 340° |
| 2026-04-28 18:44 | 57.94725 | -6.20689 | 3012 ft | 122 kts | 340° |
| 2026-04-28 18:44 | 57.95519 | -6.21228 | 3001 ft | 121 kts | 340° |
| 2026-04-28 18:45 | 57.96306 | -6.21762 | 2999 ft | 120 kts | 340° |
| 2026-04-28 18:45 | 57.97080 | -6.22286 | 2999 ft | 119 kts | 340° |
| 2026-04-28 18:45 | 57.97871 | -6.22823 | 2999 ft | 119 kts | 340° |
| 2026-04-28 18:45 | 57.98644 | -6.23346 | 2999 ft | 119 kts | 340° |
| 2026-04-28 18:46 | 57.99425 | -6.23875 | 2999 ft | 119 kts | 340° |
| 2026-04-28 18:46 | 58.00207 | -6.24406 | 2999 ft | 119 kts | 340° |
| 2026-04-28 18:46 | 58.00988 | -6.24936 | 2999 ft | 119 kts | 340° |
| 2026-04-28 18:46 | 58.01761 | -6.25460 | 2985 ft | 120 kts | 340° |
| 2026-04-28 18:47 | 58.02562 | -6.26001 | 2806 ft | 118 kts | 341° |
| 2026-04-28 18:47 | 58.03337 | -6.26527 | 2633 ft | 122 kts | 340° |
| 2026-04-28 18:47 | 58.04140 | -6.27072 | 2459 ft | 123 kts | 340° |
| 2026-04-28 18:47 | 58.04943 | -6.27616 | 2284 ft | 123 kts | 340° |
| 2026-04-28 18:48 | 58.05748 | -6.28163 | 2108 ft | 122 kts | 340° |
| 2026-04-28 18:48 | 58.06534 | -6.28699 | 1975 ft | 121 kts | 340° |
| 2026-04-28 18:48 | 58.07317 | -6.29232 | 1906 ft | 115 kts | 340° |
| 2026-04-28 18:48 | 58.07987 | -6.29688 | 1895 ft | 93 kts | 340° |
| 2026-04-28 18:49 | 58.08548 | -6.30072 | 1900 ft | 76 kts | 340° |